Quick Links (Output Below):   Max & Min Temps   /   Climate Reports   /   Zone Forecasts
River Forecasts   /   Forestry Forecasts   /   Aviation Forecasts   /   Radars   /   Features

Terminal Aerodrome Forecast (Arkadelphia)

Pick a Site:
Arkadelphia | El Dorado | Fayetteville | Fort Smith | Harrison | Highfill | Hot Springs | Jonesboro
Little Rock | Monticello | Mountain Home | Pine Bluff | Texarkana
 Forecast 

KADF 250527Z 2506/2606 00000KT 3SM BR SKC
     FM251000 00000KT 1SM BR VCFG SCT005
     FM251400 13005KT P6SM SCT250
     FM252100 18005KT P6SM BKN100
     FM260300 33006KT P6SM BKN050=


 Latest METARs (Observations) 
How to Decode METARs
10Z KADF 250956Z AUTO 00000KT 2SM BR FEW003 20/20 A3004 RMK AO2 SLP172
         T02000200 $
         
09Z KADF 250856Z AUTO 00000KT 6SM BR CLR 20/20 A3003 RMK AO2 SLP169
         T02000200 50004 TSNO $
         
08Z KADF 250756Z AUTO 00000KT 3/4SM BR CLR 21/21 A3004 RMK AO2 VIS
         1/4V4 SLP172 T02060206 $
         
07Z KADF 250656Z AUTO 00000KT 1 1/4SM BR CLR 20/20 A3003 RMK AO2
         SLP170 T02000200 $
         
06Z KADF 250556Z AUTO 00000KT 5SM BR CLR 21/21 A3002 RMK AO2 SLP165
         T02110211 10278 20206 50000 $
         
05Z KADF 250456Z AUTO 00000KT 3/4SM BR CLR 22/21 A3002 RMK AO2 SLP165
         T02170211 403220189 $
         
04Z KADF 250356Z AUTO 00000KT 5SM BR FEW120 22/22 A3002 RMK AO2 SLP167
         T02220222 $
         
03Z KADF 250256Z AUTO 00000KT 6SM BR CLR 23/22 A3002 RMK AO2 SLP165
         T02280222 53016 $
         
02Z KADF 250156Z AUTO 00000KT 10SM CLR 24/23 A3000 RMK AO2 SLP159
         T02440233 $
         
01Z KADF 250056Z AUTO 00000KT 10SM CLR 25/24 A2997 RMK AO2 SLP150
         T02500239 $
         
***** Today's Observations (Above) *****


Back to Main Page
http://www.srh.noaa.gov/lzk/qfcst.php

USA.gov is the U.S. government's official web portal to all federal, state and local government web resources and services.